Current Conditions
Mostly Clear
Conditions




Pressure
1008.92 (mb) - 29.79 (inHG)
Visibility

10.0 (km) - 6.2 (miles)
   Temperature
13  °C
55°F
10  °C
Dewpoint
82  %
 Humidity
   Wind Speed
3.1  m/s
7  mph
11  km/h
6  kts
   Wind Direction
 70°
East North
East
   Airport Data
ENAL
Location Ă…lesund Airport 10 km (6.22 mi)
Metar :ENAL 302050Z 07006KT 050V110 CAVOK 13/10 Q1009
Wed 30th September 22:50 pm
   Raw Metar Info
Raw METAR is the most common format in the world for the transmission of observational weather data. It is highly standardized through the International Civil Aviation Organization (ICAO), which allows it to be understood throughout most of the world.
   API Info
Data Provided by
https://www.checkwx.com/weather/ENAL
   © Info
CSS/SVG/PHP scripts were developed by weather34.com for use in the weather34 template © 2015-2020

Guide Info provided by Metar-Wikipedia